createdAt,value
2023-05-05T00:00:11.871Z,41.95
2023-05-05T00:01:11.879Z,40.38
2023-05-05T00:02:12.997Z,42.78
2023-05-05T00:03:13.208Z,44.87
2023-05-05T00:04:12.206Z,42.64
2023-05-05T00:05:13.170Z,38.20
2023-05-05T00:06:13.086Z,42.24
2023-05-05T00:07:12.203Z,42.24
2023-05-05T00:08:13.248Z,40.29
2023-05-05T00:09:12.224Z,44.82
2023-05-05T00:10:13.233Z,43.58
2023-05-05T00:11:13.389Z,41.00
2023-05-05T00:12:12.296Z,41.56
2023-05-05T00:13:13.574Z,44.66
2023-05-05T00:14:12.521Z,40.26
2023-05-05T00:15:12.494Z,40.91
2023-05-05T00:16:12.521Z,41.59
2023-05-05T00:17:12.601Z,43.16
2023-05-05T00:18:12.554Z,40.03
2023-05-05T00:19:13.637Z,39.45
2023-05-05T00:20:13.619Z,41.30
2023-05-05T00:21:12.727Z,40.07
2023-05-05T00:22:13.687Z,40.95
2023-05-05T00:23:12.760Z,36.91
2023-05-05T00:24:13.838Z,41.04
2023-05-05T00:25:12.750Z,40.73
2023-05-05T00:26:13.835Z,40.83
2023-05-05T00:27:13.838Z,41.47
2023-05-05T00:28:12.978Z,43.05
2023-05-05T00:29:12.960Z,38.44
2023-05-05T00:30:14.027Z,41.57
2023-05-05T00:31:14.056Z,40.50
2023-05-05T00:32:13.070Z,41.43
2023-05-05T00:33:13.175Z,38.15
2023-05-05T00:34:14.264Z,39.97
2023-05-05T00:35:13.229Z,40.69
2023-05-05T00:36:13.300Z,40.16
2023-05-05T00:37:13.351Z,42.92
2023-05-05T00:38:13.260Z,40.06
2023-05-05T00:39:14.320Z,40.86
2023-05-05T00:40:14.378Z,37.95
2023-05-05T00:41:14.701Z,38.68
2023-05-05T00:42:13.500Z,41.73
2023-05-05T00:43:13.532Z,39.86
2023-05-05T00:44:14.681Z,42.23
2023-05-05T00:45:13.539Z,43.83
2023-05-05T00:46:13.702Z,37.43
2023-05-05T00:47:14.613Z,40.30
2023-05-05T00:48:13.620Z,39.39
2023-05-05T00:49:13.710Z,38.93
2023-05-05T00:50:14.726Z,42.02
2023-05-05T00:51:13.790Z,39.77
2023-05-05T00:52:13.868Z,42.09
2023-05-05T00:53:14.903Z,39.32
2023-05-05T00:54:13.882Z,36.67
2023-05-05T00:55:13.905Z,39.22
2023-05-05T00:56:14.994Z,38.31
2023-05-05T00:57:15.016Z,39.23
2023-05-05T00:58:14.124Z,38.53
2023-05-05T00:59:15.121Z,39.14
2023-05-05T01:00:14.104Z,38.33
2023-05-05T01:01:15.227Z,38.56
2023-05-05T01:02:14.220Z,39.69
2023-05-05T01:03:14.363Z,41.59
2023-05-05T01:04:14.401Z,38.16
2023-05-05T01:05:14.365Z,39.64
2023-05-05T01:06:14.335Z,40.85
2023-05-05T01:07:15.552Z,39.77
2023-05-05T01:08:14.529Z,39.62
2023-05-05T01:09:14.610Z,40.09
2023-05-05T01:10:20.421Z,37.53
2023-05-05T01:11:15.513Z,37.78
2023-05-05T01:12:14.517Z,38.23
2023-05-05T01:13:15.492Z,37.98
2023-05-05T01:14:15.567Z,38.16
2023-05-05T01:15:15.500Z,41.77
2023-05-05T01:16:14.501Z,37.46
2023-05-05T01:17:14.489Z,39.58
2023-05-05T01:18:14.522Z,40.46
2023-05-05T01:19:14.462Z,40.29
2023-05-05T01:20:15.437Z,35.04
2023-05-05T01:21:15.517Z,39.68
2023-05-05T01:22:15.546Z,39.40
2023-05-05T01:23:14.473Z,39.63
2023-05-05T01:24:15.562Z,40.57
2023-05-05T01:25:14.588Z,38.37
2023-05-05T01:26:14.592Z,37.17
2023-05-05T01:27:14.701Z,38.52
2023-05-05T01:28:14.790Z,37.17
2023-05-05T01:29:14.860Z,36.80
2023-05-05T01:30:14.809Z,37.40
2023-05-05T01:31:14.880Z,38.49
2023-05-05T01:32:14.992Z,37.84
2023-05-05T01:33:14.987Z,35.87
2023-05-05T01:34:16.117Z,37.80
2023-05-05T01:35:15.026Z,37.01
2023-05-05T01:36:15.090Z,38.19
2023-05-05T01:37:16.048Z,39.06
2023-05-05T01:38:15.196Z,37.21
2023-05-05T01:39:15.205Z,36.70
2023-05-05T01:40:15.196Z,36.44
2023-05-05T01:41:15.296Z,37.21
2023-05-05T01:42:15.318Z,36.36
2023-05-05T01:43:15.309Z,36.71
2023-05-05T01:44:15.338Z,37.40
2023-05-05T01:45:15.410Z,36.97
2023-05-05T01:46:16.657Z,35.80
2023-05-05T01:47:15.564Z,32.88
2023-05-05T01:48:15.644Z,33.06
2023-05-05T01:49:15.656Z,36.66
2023-05-05T01:50:16.654Z,34.69
2023-05-05T01:51:15.633Z,35.91
2023-05-05T01:52:15.766Z,34.33
2023-05-05T01:53:16.856Z,34.30
2023-05-05T01:54:15.788Z,36.90
2023-05-05T01:55:16.924Z,34.61
2023-05-05T01:56:15.888Z,34.05
2023-05-05T01:57:17.021Z,35.36
2023-05-05T01:58:17.052Z,35.65
2023-05-05T01:59:16.095Z,38.10
2023-05-05T02:00:17.139Z,33.84
2023-05-05T02:01:16.181Z,34.79
2023-05-05T02:02:16.269Z,35.12
2023-05-05T02:03:16.393Z,35.24
2023-05-05T02:04:16.291Z,35.12
2023-05-05T02:05:17.418Z,32.79
2023-05-05T02:06:16.424Z,33.85
2023-05-05T02:07:16.483Z,34.83
2023-05-05T02:08:16.615Z,31.75
2023-05-05T02:09:16.622Z,33.71
2023-05-05T02:10:16.630Z,33.41
2023-05-05T02:11:17.637Z,36.62
2023-05-05T02:12:17.634Z,34.30
2023-05-05T02:13:16.946Z,35.19
2023-05-05T02:14:16.749Z,34.81
2023-05-05T02:15:17.836Z,34.20
2023-05-05T02:16:17.033Z,34.78
2023-05-05T02:17:17.954Z,30.77
2023-05-05T02:18:17.002Z,33.98
2023-05-05T02:19:18.056Z,32.78
2023-05-05T02:20:17.046Z,35.07
2023-05-05T02:21:17.127Z,35.01
2023-05-05T02:22:17.210Z,32.74
2023-05-05T02:23:17.173Z,33.22
2023-05-05T02:24:18.246Z,30.24
2023-05-05T02:25:18.343Z,31.94
2023-05-05T02:26:18.355Z,32.22
2023-05-05T02:27:17.412Z,31.63
2023-05-05T02:28:17.506Z,31.46
2023-05-05T02:29:18.499Z,31.99
2023-05-05T02:30:18.504Z,32.14
2023-05-05T02:31:18.701Z,34.16
2023-05-05T02:32:17.652Z,29.73
2023-05-05T02:33:18.657Z,30.75
2023-05-05T02:34:17.744Z,31.96
2023-05-05T02:35:17.827Z,31.15
2023-05-05T02:36:18.800Z,35.27
2023-05-05T02:37:17.938Z,30.36
2023-05-05T02:38:18.915Z,31.25
2023-05-05T02:39:19.001Z,31.17
2023-05-05T02:40:19.067Z,31.57
2023-05-05T02:41:19.110Z,32.17
2023-05-05T02:42:18.155Z,29.14
2023-05-05T02:43:19.180Z,28.59
2023-05-05T02:44:19.223Z,33.91
2023-05-05T02:45:18.418Z,29.30
2023-05-05T02:46:18.422Z,31.50
2023-05-05T02:47:19.386Z,32.27
2023-05-05T02:48:19.544Z,28.94
2023-05-05T02:49:18.561Z,31.97
2023-05-05T02:50:18.555Z,28.72
2023-05-05T02:51:19.635Z,30.08
2023-05-05T02:52:18.818Z,29.46
2023-05-05T02:53:18.691Z,27.94
2023-05-05T02:54:19.808Z,29.23
2023-05-05T02:55:18.899Z,31.33
2023-05-05T02:56:18.852Z,28.54
2023-05-05T02:57:18.950Z,28.81
2023-05-05T02:58:20.055Z,30.60
2023-05-05T02:59:19.128Z,28.46
2023-05-05T03:00:19.206Z,29.62
2023-05-05T03:01:19.250Z,28.55
2023-05-05T03:02:19.272Z,30.06
2023-05-05T03:03:20.346Z,29.66
2023-05-05T03:04:19.412Z,28.48
2023-05-05T03:05:19.384Z,31.76
2023-05-05T03:06:21.142Z,31.88
2023-05-05T03:07:19.531Z,28.34
2023-05-05T03:08:19.669Z,34.50
2023-05-05T03:09:19.704Z,27.09
2023-05-05T03:10:20.706Z,28.09
2023-05-05T03:11:20.816Z,31.75
2023-05-05T03:12:19.819Z,28.19
2023-05-05T03:13:20.921Z,29.42
2023-05-05T03:14:19.954Z,28.96
2023-05-05T03:15:20.077Z,28.35
2023-05-05T03:16:21.208Z,26.69
2023-05-05T03:17:20.143Z,27.97
2023-05-05T03:18:21.117Z,27.51
2023-05-05T03:19:20.288Z,26.18
2023-05-05T03:20:21.253Z,26.70
2023-05-05T03:21:20.256Z,28.01
2023-05-05T03:22:20.433Z,25.08
2023-05-05T03:23:20.394Z,26.69
2023-05-05T03:24:20.543Z,29.31
2023-05-05T03:25:21.639Z,26.01
2023-05-05T03:26:20.600Z,28.61
2023-05-05T03:27:20.691Z,26.86
2023-05-05T03:28:20.761Z,28.44
2023-05-05T03:29:20.720Z,29.74
2023-05-05T03:30:21.790Z,27.58
2023-05-05T03:31:21.871Z,29.04
2023-05-05T03:32:20.934Z,25.65
2023-05-05T03:33:21.971Z,27.19
2023-05-05T03:34:21.063Z,28.24
2023-05-05T03:35:22.197Z,28.63
2023-05-05T03:36:22.222Z,30.37
2023-05-05T03:37:21.186Z,30.92
2023-05-05T03:38:22.326Z,30.35
2023-05-05T03:39:22.354Z,29.83
2023-05-05T03:40:32.671Z,30.34
2023-05-05T03:41:22.367Z,30.56
2023-05-05T03:42:22.357Z,31.59
2023-05-05T03:43:22.409Z,31.09
2023-05-05T03:44:21.364Z,30.63
2023-05-05T03:45:21.475Z,30.36
2023-05-05T03:46:21.361Z,28.20
2023-05-05T03:47:22.425Z,29.16
2023-05-05T03:48:21.328Z,31.35
2023-05-05T03:49:21.403Z,29.07
2023-05-05T03:50:21.338Z,28.52
2023-05-05T03:51:21.295Z,28.15
2023-05-05T03:52:21.335Z,28.09
2023-05-05T03:53:21.386Z,29.01
2023-05-05T03:54:21.263Z,31.29
2023-05-05T03:55:22.297Z,26.65
2023-05-05T03:56:21.269Z,29.04
2023-05-05T03:57:22.272Z,27.70
2023-05-05T03:58:22.283Z,26.77
2023-05-05T03:59:21.222Z,25.86
2023-05-05T04:00:22.256Z,30.78
2023-05-05T04:01:21.248Z,26.63
2023-05-05T04:02:21.266Z,25.70
2023-05-05T04:03:22.522Z,32.16
2023-05-05T04:04:22.458Z,33.21
2023-05-05T04:05:22.421Z,25.38
2023-05-05T04:06:21.492Z,27.92
2023-05-05T04:07:22.593Z,29.36
2023-05-05T04:08:22.630Z,28.39
2023-05-05T04:09:21.613Z,26.48
2023-05-05T04:10:21.776Z,31.42
2023-05-05T04:11:21.760Z,28.88
2023-05-05T04:12:21.801Z,28.30
2023-05-05T04:13:22.904Z,29.17
2023-05-05T04:14:21.919Z,30.97
2023-05-05T04:15:21.935Z,27.33
2023-05-05T04:16:23.236Z,26.83
2023-05-05T04:17:22.155Z,25.00
2023-05-05T04:18:23.178Z,25.42
2023-05-05T04:19:22.297Z,30.32
2023-05-05T04:20:22.349Z,28.05
2023-05-05T04:21:22.398Z,26.17
2023-05-05T04:22:22.423Z,26.27
2023-05-05T04:23:23.490Z,28.19
2023-05-05T04:24:22.544Z,25.00
2023-05-05T04:25:22.605Z,30.13
2023-05-05T04:26:22.700Z,26.44
2023-05-05T04:27:23.711Z,30.05
2023-05-05T04:28:22.719Z,27.87
2023-05-05T04:29:22.826Z,28.74
2023-05-05T04:30:22.893Z,25.00
2023-05-05T04:31:22.919Z,32.87
2023-05-05T04:32:24.041Z,29.86
2023-05-05T04:33:24.041Z,28.50
2023-05-05T04:34:24.076Z,28.01
2023-05-05T04:35:24.159Z,29.26
2023-05-05T04:36:23.251Z,29.38
2023-05-05T04:37:23.284Z,30.94
2023-05-05T04:38:24.374Z,30.13
2023-05-05T04:39:23.411Z,30.28
2023-05-05T04:40:23.555Z,31.30
2023-05-05T04:41:23.625Z,29.84
2023-05-05T04:42:24.601Z,29.51
2023-05-05T04:43:23.584Z,27.61
2023-05-05T04:44:24.706Z,30.59
2023-05-05T04:45:23.777Z,32.38
2023-05-05T04:46:24.933Z,29.48
2023-05-05T04:47:23.877Z,25.84
2023-05-05T04:48:23.899Z,30.01
2023-05-05T04:49:24.016Z,30.16
2023-05-05T04:50:24.148Z,28.10
2023-05-05T04:51:24.142Z,28.43
2023-05-05T04:52:24.227Z,27.74
2023-05-05T04:53:25.212Z,27.58
2023-05-05T04:54:25.276Z,27.32
2023-05-05T04:55:25.313Z,28.93
2023-05-05T04:56:25.480Z,25.83
2023-05-05T04:57:24.488Z,27.30
2023-05-05T04:58:24.468Z,27.79
2023-05-05T04:59:25.616Z,25.85
2023-05-05T05:00:24.648Z,28.15
2023-05-05T05:01:24.682Z,29.05
2023-05-05T05:02:24.863Z,26.55
2023-05-05T05:03:26.000Z,30.00
2023-05-05T05:04:25.910Z,26.73
2023-05-05T05:05:24.971Z,27.88
2023-05-05T05:06:25.147Z,28.40
2023-05-05T05:07:26.112Z,25.00
2023-05-05T05:08:25.194Z,29.21
2023-05-05T05:09:25.192Z,28.40
2023-05-05T05:10:26.240Z,28.32
2023-05-05T05:11:25.393Z,29.02
2023-05-05T05:12:25.406Z,28.45
2023-05-05T05:13:25.580Z,30.48
2023-05-05T05:14:25.464Z,27.48
2023-05-05T05:15:25.540Z,26.65
2023-05-05T05:16:25.671Z,29.43
2023-05-05T05:17:26.598Z,27.58
2023-05-05T05:18:25.639Z,28.10
2023-05-05T05:19:25.770Z,27.40
2023-05-05T05:20:25.790Z,29.32
2023-05-05T05:21:26.949Z,29.97
2023-05-05T05:22:26.905Z,27.92
2023-05-05T05:23:26.936Z,29.26
2023-05-05T05:24:25.953Z,28.95
2023-05-05T05:25:27.021Z,30.20
2023-05-05T05:26:26.189Z,31.86
2023-05-05T05:27:26.100Z,31.14
2023-05-05T05:28:26.141Z,34.33
2023-05-05T05:29:26.287Z,36.21
2023-05-05T05:30:26.258Z,36.71
2023-05-05T05:31:26.433Z,39.82
2023-05-05T05:32:26.350Z,41.21
2023-05-05T05:33:28.293Z,42.51
2023-05-05T05:34:26.908Z,41.93
2023-05-05T05:35:26.578Z,46.07
2023-05-05T05:36:26.628Z,43.16
2023-05-05T05:37:27.669Z,45.41
2023-05-05T05:38:26.649Z,50.50
2023-05-05T05:39:26.705Z,52.43
2023-05-05T05:40:26.704Z,54.01
2023-05-05T05:41:26.976Z,55.65
2023-05-05T05:42:27.797Z,56.58
2023-05-05T05:43:28.210Z,60.61
2023-05-05T05:44:28.748Z,61.27
2023-05-05T05:45:27.351Z,72.00
2023-05-05T05:46:26.888Z,80.39
2023-05-05T05:47:26.753Z,90.73
2023-05-05T05:48:26.794Z,110.00
2023-05-05T05:49:26.954Z,119.44
2023-05-05T05:50:28.035Z,129.51
2023-05-05T05:51:26.986Z,140.19
2023-05-05T05:52:33.811Z,148.14
2023-05-05T05:53:26.776Z,148.68
2023-05-05T05:54:26.810Z,150.90
2023-05-05T05:55:26.747Z,156.18
2023-05-05T05:56:26.768Z,165.94
2023-05-05T05:57:27.864Z,186.11
2023-05-05T05:58:26.734Z,196.58
2023-05-05T05:59:26.814Z,209.72
2023-05-05T06:00:27.790Z,215.95
2023-05-05T06:01:26.954Z,230.28
2023-05-05T06:02:27.868Z,249.66
2023-05-05T06:03:26.996Z,276.24
2023-05-05T06:04:26.838Z,250.00
2023-05-05T06:05:26.704Z,242.12
2023-05-05T06:06:27.748Z,244.89
2023-05-05T06:07:26.831Z,247.87
2023-05-05T06:08:26.766Z,249.55
2023-05-05T06:09:26.693Z,250.00
2023-05-05T06:10:28.366Z,250.00
2023-05-05T06:11:27.668Z,249.68
2023-05-05T06:12:27.639Z,247.31
2023-05-05T06:13:26.665Z,249.29
2023-05-05T06:14:26.635Z,250.00
2023-05-05T06:15:26.618Z,245.35
2023-05-05T06:16:26.732Z,253.21
2023-05-05T06:17:27.650Z,250.97
2023-05-05T06:18:26.804Z,248.33
2023-05-05T06:19:26.628Z,249.00
2023-05-05T06:20:26.646Z,247.57
2023-05-05T06:21:26.617Z,250.00
2023-05-05T06:22:26.599Z,244.37
2023-05-05T06:23:27.607Z,247.54
2023-05-05T06:24:27.676Z,248.57
2023-05-05T06:25:26.551Z,246.91
2023-05-05T06:26:26.663Z,250.00
2023-05-05T06:27:26.763Z,250.00
2023-05-05T06:28:27.780Z,248.14
2023-05-05T06:29:26.883Z,248.25
2023-05-05T06:30:26.908Z,247.06
2023-05-05T06:31:27.102Z,248.39
2023-05-05T06:32:27.034Z,247.27
2023-05-05T06:33:27.993Z,244.19
2023-05-05T06:34:28.118Z,247.29
2023-05-05T06:35:27.107Z,250.00
2023-05-05T06:36:27.246Z,246.85
2023-05-05T06:37:27.246Z,248.41
2023-05-05T06:38:27.302Z,248.78
2023-05-05T06:39:27.336Z,246.09
2023-05-05T06:40:27.374Z,248.69
2023-05-05T06:41:28.460Z,245.11
2023-05-05T06:42:27.436Z,242.51
2023-05-05T06:43:27.494Z,243.75
2023-05-05T06:44:27.537Z,243.38
2023-05-05T06:45:28.523Z,242.79
2023-05-05T06:46:27.554Z,241.44
2023-05-05T06:47:28.517Z,240.81
2023-05-05T06:48:28.848Z,241.10
2023-05-05T06:49:27.513Z,238.33
2023-05-05T06:50:27.528Z,235.52
2023-05-05T06:51:28.510Z,240.28
2023-05-05T06:52:28.046Z,237.72
2023-05-05T06:53:28.547Z,200.94
2023-05-05T06:54:27.595Z,181.81
2023-05-05T06:55:27.678Z,189.64
2023-05-05T06:56:27.768Z,198.61
2023-05-05T06:57:27.968Z,193.65
2023-05-05T06:58:28.643Z,185.68
2023-05-05T06:59:27.784Z,185.00
2023-05-05T07:00:27.710Z,183.78
2023-05-05T07:01:27.686Z,180.62
2023-05-05T07:02:27.733Z,184.00
2023-05-05T07:03:28.691Z,181.42
2023-05-05T07:04:28.709Z,178.51
2023-05-05T07:05:27.703Z,175.04
2023-05-05T07:06:28.701Z,175.94
2023-05-05T07:07:27.745Z,178.19
2023-05-05T07:08:27.702Z,174.23
2023-05-05T07:09:27.703Z,174.23
2023-05-05T07:10:27.727Z,176.40
2023-05-05T07:11:27.724Z,186.27
2023-05-05T07:12:28.961Z,192.08
2023-05-05T07:13:28.773Z,191.61
2023-05-05T07:14:28.875Z,190.02
2023-05-05T07:15:29.650Z,183.77
2023-05-05T07:16:27.812Z,183.50
2023-05-05T07:17:27.775Z,182.81
2023-05-05T07:18:28.787Z,172.49
2023-05-05T07:19:27.781Z,174.65
2023-05-05T07:20:27.843Z,179.50
2023-05-05T07:21:28.857Z,191.44
2023-05-05T07:22:27.910Z,190.30
2023-05-05T07:23:28.974Z,184.55
2023-05-05T07:24:29.023Z,173.65
2023-05-05T07:25:28.087Z,171.63
2023-05-05T07:26:29.192Z,164.45
2023-05-05T07:27:28.266Z,167.61
2023-05-05T07:28:28.523Z,170.86
2023-05-05T07:29:28.353Z,174.31
2023-05-05T07:30:28.408Z,172.67
2023-05-05T07:31:28.553Z,169.82
2023-05-05T07:32:28.488Z,169.03
2023-05-05T07:33:28.486Z,165.81
2023-05-05T07:34:29.592Z,162.54
2023-05-05T07:35:28.605Z,160.64
2023-05-05T07:36:29.644Z,161.30
2023-05-05T07:37:28.737Z,160.69
2023-05-05T07:38:28.733Z,161.21
2023-05-05T07:39:28.753Z,160.79
2023-05-05T07:40:29.895Z,163.70
2023-05-05T07:41:29.792Z,163.97
2023-05-05T07:42:29.793Z,165.16
2023-05-05T07:43:28.823Z,166.84
2023-05-05T07:44:28.934Z,167.90
2023-05-05T07:45:29.949Z,168.84
2023-05-05T07:46:29.030Z,169.13
2023-05-05T07:47:29.135Z,170.93
2023-05-05T07:48:29.986Z,171.49
2023-05-05T07:49:29.948Z,174.06
2023-05-05T07:50:30.046Z,171.42
2023-05-05T07:51:29.029Z,170.32
2023-05-05T07:52:43.602Z,168.18
2023-05-05T07:53:30.031Z,168.32
2023-05-05T07:54:30.048Z,166.52
2023-05-05T07:55:29.124Z,167.89
2023-05-05T07:56:30.150Z,168.50
2023-05-05T07:57:29.184Z,168.25
2023-05-05T07:58:29.270Z,169.65
2023-05-05T07:59:30.219Z,168.94
2023-05-05T08:00:29.420Z,167.24
2023-05-05T08:01:29.294Z,165.74
2023-05-05T08:02:30.317Z,166.58
2023-05-05T08:03:29.401Z,166.30
2023-05-05T08:04:29.342Z,165.08
2023-05-05T08:05:29.220Z,165.21
2023-05-05T08:06:30.228Z,165.65
2023-05-05T08:07:29.328Z,165.08
2023-05-05T08:08:29.371Z,164.31
2023-05-05T08:09:29.365Z,164.92
2023-05-05T08:10:29.348Z,163.18
2023-05-05T08:11:30.362Z,162.64
2023-05-05T08:12:30.396Z,161.88
2023-05-05T08:13:29.380Z,161.01
2023-05-05T08:14:30.526Z,160.47
2023-05-05T08:15:29.463Z,160.52
2023-05-05T08:16:30.609Z,161.80
2023-05-05T08:17:30.510Z,160.07
2023-05-05T08:18:30.516Z,159.06
2023-05-05T08:19:30.575Z,160.27
2023-05-05T08:20:29.629Z,160.48
2023-05-05T08:21:29.686Z,156.71
2023-05-05T08:22:29.636Z,156.78
2023-05-05T08:23:30.739Z,157.38
2023-05-05T08:24:30.699Z,157.24
2023-05-05T08:25:30.813Z,159.66
2023-05-05T08:26:29.759Z,155.58
2023-05-05T08:27:30.778Z,156.14
2023-05-05T08:28:30.814Z,153.18
2023-05-05T08:29:30.907Z,155.53
2023-05-05T08:30:30.946Z,156.85
2023-05-05T08:31:30.001Z,152.84
2023-05-05T08:32:30.211Z,152.97
2023-05-05T08:33:30.013Z,153.70
2023-05-05T08:34:30.084Z,151.63
2023-05-05T08:35:31.055Z,150.90
2023-05-05T08:36:31.134Z,149.29
2023-05-05T08:37:30.168Z,149.53
2023-05-05T08:38:31.233Z,145.45
2023-05-05T08:39:30.202Z,151.48
2023-05-05T08:40:30.222Z,147.02
2023-05-05T08:41:30.287Z,146.07
2023-05-05T08:42:36.937Z,148.16
2023-05-05T08:43:31.603Z,147.85
2023-05-05T08:44:30.353Z,148.42
2023-05-05T08:45:31.215Z,143.00
2023-05-05T08:46:31.285Z,143.89
2023-05-05T08:47:30.366Z,141.19
2023-05-05T08:48:30.458Z,139.59
2023-05-05T08:49:31.273Z,132.78
2023-05-05T08:50:30.268Z,102.13
2023-05-05T08:51:30.273Z,108.25
2023-05-05T08:52:30.245Z,109.25
2023-05-05T08:53:30.273Z,96.10
2023-05-05T08:54:30.157Z,85.17
2023-05-05T08:55:30.149Z,77.55
2023-05-05T08:56:31.235Z,80.57
2023-05-05T08:57:31.148Z,78.22
2023-05-05T08:58:31.506Z,72.90
2023-05-05T08:59:30.196Z,74.49
2023-05-05T09:00:31.115Z,71.72
2023-05-05T09:01:30.230Z,73.18
2023-05-05T09:02:30.222Z,73.92
2023-05-05T09:03:30.196Z,73.55
2023-05-05T09:04:30.224Z,72.24
2023-05-05T09:05:30.102Z,72.37
2023-05-05T09:06:30.156Z,77.39
2023-05-05T09:07:30.077Z,75.71
2023-05-05T09:08:30.176Z,76.39
2023-05-05T09:09:31.144Z,78.02
2023-05-05T09:10:30.037Z,81.09
2023-05-05T09:11:30.099Z,77.64
2023-05-05T09:12:30.221Z,84.21
2023-05-05T09:13:30.150Z,83.24
2023-05-05T09:14:30.093Z,82.07
2023-05-05T09:15:30.055Z,80.10
2023-05-05T09:16:30.036Z,84.31
2023-05-05T09:17:31.029Z,81.91
2023-05-05T09:18:31.087Z,88.73
2023-05-05T09:19:30.065Z,83.96
2023-05-05T09:20:30.239Z,85.17
2023-05-05T09:21:30.056Z,82.83
2023-05-05T09:22:29.964Z,82.52
2023-05-05T09:23:31.034Z,86.99
2023-05-05T09:24:29.991Z,86.98
2023-05-05T09:25:30.007Z,87.47
2023-05-05T09:26:29.944Z,84.96
2023-05-05T09:27:29.944Z,90.00
2023-05-05T09:28:31.059Z,84.86
2023-05-05T09:29:29.926Z,90.00
2023-05-05T09:30:30.930Z,87.53
2023-05-05T09:31:29.992Z,88.39
2023-05-05T09:32:30.951Z,89.82
2023-05-05T09:33:29.989Z,88.36
2023-05-05T09:34:29.944Z,86.76
2023-05-05T09:35:29.978Z,89.32
2023-05-05T09:36:29.982Z,87.38
2023-05-05T09:37:29.890Z,88.29
2023-05-05T09:38:30.879Z,90.71
2023-05-05T09:39:30.953Z,86.31
2023-05-05T09:40:30.858Z,90.87
2023-05-05T09:41:29.899Z,91.53
2023-05-05T09:42:29.852Z,92.39
2023-05-05T09:43:29.853Z,94.05
2023-05-05T09:44:30.816Z,94.32
2023-05-05T09:45:29.891Z,90.15
2023-05-05T09:46:29.941Z,92.00
2023-05-05T09:47:30.253Z,94.38
2023-05-05T09:48:30.142Z,96.82
2023-05-05T09:49:29.815Z,96.18
2023-05-05T09:50:31.207Z,93.81
2023-05-05T09:51:30.772Z,95.46
2023-05-05T09:52:30.846Z,102.30
2023-05-05T09:53:31.105Z,102.54
2023-05-05T09:54:29.857Z,103.86
2023-05-05T09:55:29.886Z,107.82
2023-05-05T09:56:29.997Z,104.96
2023-05-05T09:57:30.018Z,91.08
2023-05-05T09:58:31.108Z,67.38
2023-05-05T09:59:30.041Z,61.96
2023-05-05T10:00:30.067Z,36.67
2023-05-05T10:01:30.114Z,21.40
2023-05-05T10:02:30.146Z,25.48
2023-05-05T10:03:30.088Z,25.59
2023-05-05T10:04:30.231Z,23.54
2023-05-05T10:05:30.139Z,25.00
2023-05-05T10:06:30.151Z,23.02
2023-05-05T10:07:31.240Z,25.00
2023-05-05T10:08:30.368Z,23.79
2023-05-05T10:09:31.266Z,27.17
2023-05-05T10:10:31.270Z,27.83
2023-05-05T10:11:30.288Z,32.38
2023-05-05T10:12:30.413Z,38.15
2023-05-05T10:13:30.384Z,43.38
2023-05-05T10:14:31.408Z,50.76
2023-05-05T10:15:30.420Z,57.89
2023-05-05T10:16:31.515Z,61.50
2023-05-05T10:17:31.545Z,66.56
2023-05-05T10:18:31.471Z,72.12
2023-05-05T10:19:31.509Z,81.67
2023-05-05T10:20:30.469Z,85.55
2023-05-05T10:21:31.514Z,90.93
2023-05-05T10:22:30.511Z,93.96
2023-05-05T10:23:30.459Z,98.28
2023-05-05T10:24:30.541Z,101.99
2023-05-05T10:25:30.445Z,107.84
2023-05-05T10:26:30.475Z,113.10
2023-05-05T10:27:30.456Z,114.45
2023-05-05T10:28:31.485Z,113.54
2023-05-05T10:29:30.510Z,114.91
2023-05-05T10:30:30.515Z,114.68
2023-05-05T10:31:30.517Z,115.74
2023-05-05T10:33:32.221Z,130.13
2023-05-05T10:34:30.462Z,130.37
2023-05-05T10:35:30.408Z,130.64
2023-05-05T10:36:31.407Z,130.29
2023-05-05T10:37:30.418Z,129.95
2023-05-05T10:38:31.567Z,127.60
2023-05-05T10:39:30.475Z,122.67
2023-05-05T10:40:30.545Z,108.10
2023-05-05T10:41:31.462Z,94.10
2023-05-05T10:42:30.462Z,70.25
2023-05-05T10:43:30.375Z,86.91
2023-05-05T10:44:31.752Z,90.91
2023-05-05T10:45:30.577Z,90.72
2023-05-05T10:46:30.404Z,88.30
2023-05-05T10:47:30.477Z,90.82
2023-05-05T10:48:30.339Z,94.20
2023-05-05T10:49:31.437Z,96.76
2023-05-05T10:50:30.390Z,97.61
2023-05-05T10:51:39.266Z,102.64
2023-05-05T10:52:31.358Z,102.90
2023-05-05T10:53:31.288Z,104.29
2023-05-05T10:54:30.393Z,106.56
2023-05-05T10:55:30.310Z,110.10
2023-05-05T10:56:30.315Z,116.92
2023-05-05T10:57:30.308Z,119.09
2023-05-05T10:58:31.370Z,120.81
2023-05-05T10:59:30.241Z,123.18
2023-05-05T11:00:31.219Z,122.32
2023-05-05T11:01:31.294Z,125.38
2023-05-05T11:02:30.312Z,126.08
2023-05-05T11:03:30.309Z,127.25
2023-05-05T11:04:30.271Z,128.07
2023-05-05T11:05:31.265Z,129.06
2023-05-05T11:06:30.243Z,130.30
2023-05-05T11:07:31.227Z,130.43
2023-05-05T11:08:30.167Z,133.16
2023-05-05T11:09:31.236Z,130.86
2023-05-05T11:10:30.220Z,132.23
2023-05-05T11:11:31.217Z,132.86
2023-05-05T11:12:30.484Z,133.38
2023-05-05T11:13:31.212Z,134.73
2023-05-05T11:14:30.272Z,135.47
2023-05-05T11:15:31.431Z,133.97
2023-05-05T11:16:30.458Z,136.31
2023-05-05T11:17:30.390Z,137.29
2023-05-05T11:18:31.410Z,136.50
2023-05-05T11:19:30.463Z,135.89
2023-05-05T11:20:31.579Z,135.96
2023-05-05T11:21:31.546Z,135.21
2023-05-05T11:22:30.632Z,133.75
2023-05-05T11:23:30.674Z,135.15
2023-05-05T11:24:31.743Z,135.59
2023-05-05T11:25:31.747Z,134.05
2023-05-05T11:26:30.728Z,133.21
2023-05-05T11:27:30.804Z,131.40
2023-05-05T11:28:30.985Z,130.60
2023-05-05T11:29:30.848Z,132.27
2023-05-05T11:30:30.907Z,132.95
2023-05-05T11:31:32.039Z,132.08
2023-05-05T11:32:32.017Z,132.45
2023-05-05T11:33:31.166Z,130.96
2023-05-05T11:34:31.101Z,131.09
2023-05-05T11:35:31.165Z,132.14
2023-05-05T11:36:32.214Z,131.41
2023-05-05T11:37:31.312Z,129.74
2023-05-05T11:38:31.341Z,129.78
2023-05-05T11:39:31.709Z,127.83
2023-05-05T11:40:32.446Z,125.72
2023-05-05T11:41:32.558Z,121.73
2023-05-05T11:42:32.568Z,121.01
2023-05-05T11:43:31.591Z,121.22
2023-05-05T11:44:31.754Z,119.25
2023-05-05T11:45:31.772Z,118.34
2023-05-05T11:46:31.727Z,119.58
2023-05-05T11:47:31.840Z,119.66
2023-05-05T11:48:32.822Z,119.86
2023-05-05T11:49:31.859Z,120.44
2023-05-05T11:50:31.927Z,119.94
2023-05-05T11:51:31.940Z,120.22
2023-05-05T11:52:32.987Z,118.27
2023-05-05T11:53:33.036Z,114.89
2023-05-05T11:54:32.088Z,113.72
2023-05-05T11:55:32.210Z,111.85
2023-05-05T11:56:32.151Z,112.15
2023-05-05T11:57:33.253Z,115.02
2023-05-05T11:58:33.237Z,113.89
2023-05-05T11:59:32.279Z,113.43
2023-05-05T12:00:32.484Z,111.40
2023-05-05T12:01:32.440Z,108.75
2023-05-05T12:02:32.556Z,106.89
2023-05-05T12:03:32.626Z,106.31
2023-05-05T12:04:32.688Z,99.67
2023-05-05T12:05:36.322Z,98.91
2023-05-05T12:06:32.592Z,98.92
2023-05-05T12:07:32.544Z,99.29
2023-05-05T12:08:33.602Z,100.29
2023-05-05T12:09:33.605Z,102.01
2023-05-05T12:10:32.493Z,105.36
2023-05-05T12:11:33.578Z,104.15
2023-05-05T12:12:32.519Z,106.59
2023-05-05T12:13:32.525Z,110.05
2023-05-05T12:14:32.452Z,112.78
2023-05-05T12:15:33.459Z,114.61
2023-05-05T12:16:32.605Z,116.02
2023-05-05T12:17:33.531Z,117.19
2023-05-05T12:18:32.503Z,119.39
2023-05-05T12:19:33.559Z,121.76
2023-05-05T12:20:32.532Z,124.03
2023-05-05T12:21:32.431Z,128.23
2023-05-05T12:22:32.470Z,129.96
2023-05-05T12:23:32.457Z,129.07
2023-05-05T12:24:32.458Z,133.32
2023-05-05T12:25:32.494Z,134.91
2023-05-05T12:26:32.470Z,136.03
2023-05-05T12:27:32.414Z,137.42
2023-05-05T12:28:32.342Z,137.50
2023-05-05T12:29:33.498Z,139.93
2023-05-05T12:30:32.610Z,138.68
2023-05-05T12:31:32.630Z,136.88
2023-05-05T12:32:32.916Z,138.25
2023-05-05T12:33:32.572Z,136.95
2023-05-05T12:34:32.604Z,134.93
2023-05-05T12:35:32.736Z,135.93
2023-05-05T12:36:32.806Z,136.63
2023-05-05T12:37:32.759Z,139.96
2023-05-05T12:38:32.886Z,140.32
2023-05-05T12:39:32.900Z,141.23
2023-05-05T12:40:33.075Z,139.44
2023-05-05T12:41:33.011Z,138.00
2023-05-05T12:42:34.094Z,136.69
2023-05-05T12:43:33.067Z,137.08